map of PEE home
Great Circle Mapper logo
PEE - Airport
Location
City:  Perm, Russian Federation (Russia)
Near (Alt.):Bolshoye Savino
Name:Bolshoye Savino International Airport
ICAO / IATA:USPP / PEE

Details
Type:Airport (Aerodrome, Airfield)
Use:Public/Civil, Military, International (customs port of entry)
Latitude:5754'52"N (57.914444)
Longitude:5601'17"E (56.021389)
Elevation:404 ft (123 m)
Variation:15.34E (WMM2015 magnetic declination)
0.10 annual change
Runways:1
Longest:10512 × 161 ft (3204 × 49 m), paved

Time
Time Zone:UTC+5 (DST+6)

Weather
METAR:USPP 281530Z 15003MPS CAVOK 24/14 Q1012 R21/190055 NOSIG RMK QFE748
TAF:USPP 281358Z 2815/2915 24005MPS 9999 BKN020 BKN100
TEMPO 2815/2821 VRB11MPS 2000 TSRA SCT007 BKN015CB

Related Locations
Nearby:
Farthest:SCPZ: 10647 mi / 17134 km
Antartica (Antarctica) [Patriot Hills], MA, CL

Find:

   beyond  
but within

Other Information
Maps:
NOTAMs:
Links:
Sources:

  
flag of Russian Federation (Russia)   

Sectional Chart

Flight Planning
at skyvector.com

Satellite Image

Google Maps Satellite View

 

Copyright © 2004-2015 Karl L. Swartz. All rights reserved.
The Great Circle Mapper name and logo are trademarks of the Great Circle Mapper.
All other trademarks mentioned herein belong to their respective owners.
Please see credits for attibutions and further copyright information.

  Follow gcmap on Facebook Follow gcmap on Twitter Follow gcmap on Google+

hCard Microformat

Geo Microformat